sensor_id;sensor_type;location;lat;lon;timestamp;P1;durP1;ratioP1;P2;durP2;ratioP2
24813;SDS011;12904;50.088;11.414;2024-01-10T00:01:17;17.52;;;8.88;;
24813;SDS011;12904;50.088;11.414;2024-01-10T00:03:43;14.02;;;7.60;;
24813;SDS011;12904;50.088;11.414;2024-01-10T00:06:10;16.05;;;8.30;;
24813;SDS011;12904;50.088;11.414;2024-01-10T00:08:36;18.90;;;9.52;;
24813;SDS011;12904;50.088;11.414;2024-01-10T00:11:02;13.20;;;8.13;;
24813;SDS011;12904;50.088;11.414;2024-01-10T00:13:28;17.23;;;8.00;;
24813;SDS011;12904;50.088;11.414;2024-01-10T00:15:56;12.43;;;6.95;;
24813;SDS011;12904;50.088;11.414;2024-01-10T00:18:23;15.32;;;8.25;;
24813;SDS011;12904;50.088;11.414;2024-01-10T00:20:49;14.60;;;7.95;;
24813;SDS011;12904;50.088;11.414;2024-01-10T00:23:18;16.25;;;8.27;;
24813;SDS011;12904;50.088;11.414;2024-01-10T00:25:44;13.75;;;7.40;;
24813;SDS011;12904;50.088;11.414;2024-01-10T00:28:10;13.02;;;7.88;;
24813;SDS011;12904;50.088;11.414;2024-01-10T00:30:37;20.63;;;7.50;;
24813;SDS011;12904;50.088;11.414;2024-01-10T00:33:03;14.45;;;7.40;;
24813;SDS011;12904;50.088;11.414;2024-01-10T00:35:28;17.17;;;8.65;;
24813;SDS011;12904;50.088;11.414;2024-01-10T00:37:54;16.13;;;8.35;;
24813;SDS011;12904;50.088;11.414;2024-01-10T00:40:20;15.23;;;9.10;;
24813;SDS011;12904;50.088;11.414;2024-01-10T00:42:45;13.98;;;7.95;;
24813;SDS011;12904;50.088;11.414;2024-01-10T00:45:11;17.05;;;8.88;;
24813;SDS011;12904;50.088;11.414;2024-01-10T00:47:36;15.95;;;9.23;;
24813;SDS011;12904;50.088;11.414;2024-01-10T00:50:02;18.63;;;10.02;;
24813;SDS011;12904;50.088;11.414;2024-01-10T00:52:28;19.60;;;9.38;;
24813;SDS011;12904;50.088;11.414;2024-01-10T00:54:53;18.00;;;8.18;;
24813;SDS011;12904;50.088;11.414;2024-01-10T00:57:19;17.45;;;8.75;;
24813;SDS011;12904;50.088;11.414;2024-01-10T00:59:44;14.63;;;8.38;;
24813;SDS011;12904;50.088;11.414;2024-01-10T01:02:10;15.40;;;8.88;;
24813;SDS011;12904;50.088;11.414;2024-01-10T01:04:35;17.95;;;9.02;;
24813;SDS011;12904;50.088;11.414;2024-01-10T01:07:01;29.67;;;8.45;;
24813;SDS011;12904;50.088;11.414;2024-01-10T01:09:27;17.92;;;8.55;;
24813;SDS011;12904;50.088;11.414;2024-01-10T01:11:52;18.08;;;10.13;;
24813;SDS011;12904;50.088;11.414;2024-01-10T01:14:18;23.50;;;9.77;;
24813;SDS011;12904;50.088;11.414;2024-01-10T01:16:44;19.00;;;9.18;;
24813;SDS011;12904;50.088;11.414;2024-01-10T01:19:09;17.10;;;9.10;;
24813;SDS011;12904;50.088;11.414;2024-01-10T01:21:35;13.43;;;8.70;;
24813;SDS011;12904;50.088;11.414;2024-01-10T01:24:00;14.98;;;7.10;;
24813;SDS011;12904;50.088;11.414;2024-01-10T01:26:26;15.90;;;8.25;;
24813;SDS011;12904;50.088;11.414;2024-01-10T01:28:51;16.20;;;9.35;;
24813;SDS011;12904;50.088;11.414;2024-01-10T01:31:17;16.25;;;8.63;;
24813;SDS011;12904;50.088;11.414;2024-01-10T01:33:43;21.27;;;10.75;;
24813;SDS011;12904;50.088;11.414;2024-01-10T01:36:08;18.88;;;9.00;;
24813;SDS011;12904;50.088;11.414;2024-01-10T01:38:35;16.17;;;8.52;;
24813;SDS011;12904;50.088;11.414;2024-01-10T01:41:00;13.70;;;8.15;;
24813;SDS011;12904;50.088;11.414;2024-01-10T01:43:27;20.17;;;9.15;;
24813;SDS011;12904;50.088;11.414;2024-01-10T01:45:54;19.77;;;9.25;;
24813;SDS011;12904;50.088;11.414;2024-01-10T01:48:21;13.60;;;7.78;;
24813;SDS011;12904;50.088;11.414;2024-01-10T01:50:49;16.55;;;8.63;;
24813;SDS011;12904;50.088;11.414;2024-01-10T01:53:17;13.80;;;8.75;;
24813;SDS011;12904;50.088;11.414;2024-01-10T01:55:44;19.38;;;11.10;;
24813;SDS011;12904;50.088;11.414;2024-01-10T01:58:10;16.27;;;10.23;;
24813;SDS011;12904;50.088;11.414;2024-01-10T02:00:37;19.90;;;9.07;;
24813;SDS011;12904;50.088;11.414;2024-01-10T02:03:08;17.60;;;8.90;;
24813;SDS011;12904;50.088;11.414;2024-01-10T02:05:35;21.75;;;9.65;;
24813;SDS011;12904;50.088;11.414;2024-01-10T02:08:01;32.45;;;11.23;;
24813;SDS011;12904;50.088;11.414;2024-01-10T02:10:27;15.10;;;8.85;;
24813;SDS011;12904;50.088;11.414;2024-01-10T02:12:53;19.58;;;9.50;;
24813;SDS011;12904;50.088;11.414;2024-01-10T02:15:18;33.30;;;11.73;;
24813;SDS011;12904;50.088;11.414;2024-01-10T02:17:45;22.80;;;11.38;;
24813;SDS011;12904;50.088;11.414;2024-01-10T02:22:37;20.33;;;9.75;;
24813;SDS011;12904;50.088;11.414;2024-01-10T02:25:03;28.27;;;11.20;;
24813;SDS011;12904;50.088;11.414;2024-01-10T02:27:35;19.70;;;9.73;;
24813;SDS011;12904;50.088;11.414;2024-01-10T02:30:04;21.70;;;9.90;;
24813;SDS011;12904;50.088;11.414;2024-01-10T02:32:31;20.57;;;10.33;;
24813;SDS011;12904;50.088;11.414;2024-01-10T02:34:57;20.02;;;9.57;;
24813;SDS011;12904;50.088;11.414;2024-01-10T02:37:23;29.90;;;10.88;;
24813;SDS011;12904;50.088;11.414;2024-01-10T02:39:49;25.10;;;10.45;;
24813;SDS011;12904;50.088;11.414;2024-01-10T02:42:15;19.65;;;9.40;;
24813;SDS011;12904;50.088;11.414;2024-01-10T02:44:41;16.92;;;8.73;;
24813;SDS011;12904;50.088;11.414;2024-01-10T02:47:06;19.15;;;9.80;;
24813;SDS011;12904;50.088;11.414;2024-01-10T02:49:32;18.70;;;10.52;;
24813;SDS011;12904;50.088;11.414;2024-01-10T02:51:58;18.13;;;8.88;;
24813;SDS011;12904;50.088;11.414;2024-01-10T02:54:24;14.88;;;8.68;;
24813;SDS011;12904;50.088;11.414;2024-01-10T02:56:50;19.95;;;8.88;;
24813;SDS011;12904;50.088;11.414;2024-01-10T02:59:16;22.63;;;9.10;;
24813;SDS011;12904;50.088;11.414;2024-01-10T03:01:42;18.65;;;8.63;;
24813;SDS011;12904;50.088;11.414;2024-01-10T03:04:08;21.77;;;9.02;;
24813;SDS011;12904;50.088;11.414;2024-01-10T03:06:33;16.65;;;9.35;;
24813;SDS011;12904;50.088;11.414;2024-01-10T03:08:59;22.45;;;10.07;;
24813;SDS011;12904;50.088;11.414;2024-01-10T03:11:24;17.30;;;9.60;;
24813;SDS011;12904;50.088;11.414;2024-01-10T03:13:52;17.20;;;9.35;;
24813;SDS011;12904;50.088;11.414;2024-01-10T03:16:27;17.25;;;9.40;;
24813;SDS011;12904;50.088;11.414;2024-01-10T03:18:52;18.33;;;9.73;;
24813;SDS011;12904;50.088;11.414;2024-01-10T03:21:18;16.52;;;9.57;;
24813;SDS011;12904;50.088;11.414;2024-01-10T03:23:56;20.80;;;9.75;;
24813;SDS011;12904;50.088;11.414;2024-01-10T03:26:23;16.48;;;9.10;;
24813;SDS011;12904;50.088;11.414;2024-01-10T03:28:49;19.92;;;9.65;;
24813;SDS011;12904;50.088;11.414;2024-01-10T03:31:15;17.98;;;11.13;;
24813;SDS011;12904;50.088;11.414;2024-01-10T03:33:40;18.27;;;8.88;;
24813;SDS011;12904;50.088;11.414;2024-01-10T03:36:06;13.75;;;8.50;;
24813;SDS011;12904;50.088;11.414;2024-01-10T03:38:36;15.65;;;9.07;;
24813;SDS011;12904;50.088;11.414;2024-01-10T03:41:02;15.25;;;9.20;;
24813;SDS011;12904;50.088;11.414;2024-01-10T03:43:27;17.08;;;9.43;;
24813;SDS011;12904;50.088;11.414;2024-01-10T03:45:53;17.05;;;9.80;;
24813;SDS011;12904;50.088;11.414;2024-01-10T03:48:18;22.42;;;10.73;;
24813;SDS011;12904;50.088;11.414;2024-01-10T03:50:44;17.80;;;9.95;;
24813;SDS011;12904;50.088;11.414;2024-01-10T03:53:10;17.88;;;9.80;;
24813;SDS011;12904;50.088;11.414;2024-01-10T03:55:35;25.15;;;11.85;;
24813;SDS011;12904;50.088;11.414;2024-01-10T03:58:01;23.10;;;10.88;;
24813;SDS011;12904;50.088;11.414;2024-01-10T04:00:26;23.50;;;10.88;;
24813;SDS011;12904;50.088;11.414;2024-01-10T04:02:52;22.30;;;10.73;;
24813;SDS011;12904;50.088;11.414;2024-01-10T04:05:18;20.10;;;10.57;;
24813;SDS011;12904;50.088;11.414;2024-01-10T04:07:45;26.45;;;12.48;;
24813;SDS011;12904;50.088;11.414;2024-01-10T04:10:12;23.60;;;10.23;;
24813;SDS011;12904;50.088;11.414;2024-01-10T04:12:48;25.92;;;10.98;;
24813;SDS011;12904;50.088;11.414;2024-01-10T04:15:14;26.02;;;10.07;;
24813;SDS011;12904;50.088;11.414;2024-01-10T04:17:41;22.48;;;12.25;;
24813;SDS011;12904;50.088;11.414;2024-01-10T04:20:07;29.60;;;12.52;;
24813;SDS011;12904;50.088;11.414;2024-01-10T04:22:34;32.80;;;13.63;;
24813;SDS011;12904;50.088;11.414;2024-01-10T04:25:00;25.90;;;11.18;;
24813;SDS011;12904;50.088;11.414;2024-01-10T04:27:26;23.42;;;10.50;;
24813;SDS011;12904;50.088;11.414;2024-01-10T04:29:52;22.88;;;11.52;;
24813;SDS011;12904;50.088;11.414;2024-01-10T04:32:19;25.50;;;11.13;;
24813;SDS011;12904;50.088;11.414;2024-01-10T04:34:45;32.67;;;12.27;;
24813;SDS011;12904;50.088;11.414;2024-01-10T04:37:10;19.42;;;9.68;;
24813;SDS011;12904;50.088;11.414;2024-01-10T04:39:36;20.63;;;10.15;;
24813;SDS011;12904;50.088;11.414;2024-01-10T04:42:07;20.08;;;9.95;;
24813;SDS011;12904;50.088;11.414;2024-01-10T04:44:33;15.68;;;9.07;;
24813;SDS011;12904;50.088;11.414;2024-01-10T04:46:59;16.90;;;8.50;;
24813;SDS011;12904;50.088;11.414;2024-01-10T04:49:24;22.05;;;9.85;;
24813;SDS011;12904;50.088;11.414;2024-01-10T04:51:50;30.73;;;12.20;;
24813;SDS011;12904;50.088;11.414;2024-01-10T04:54:16;19.58;;;10.00;;
24813;SDS011;12904;50.088;11.414;2024-01-10T04:56:42;15.57;;;8.60;;
24813;SDS011;12904;50.088;11.414;2024-01-10T04:59:07;19.88;;;11.00;;
24813;SDS011;12904;50.088;11.414;2024-01-10T05:01:33;20.35;;;11.27;;
24813;SDS011;12904;50.088;11.414;2024-01-10T05:03:59;30.63;;;11.00;;
24813;SDS011;12904;50.088;11.414;2024-01-10T05:06:24;26.83;;;10.75;;
24813;SDS011;12904;50.088;11.414;2024-01-10T05:08:50;23.95;;;12.07;;
24813;SDS011;12904;50.088;11.414;2024-01-10T05:11:16;25.77;;;11.57;;
24813;SDS011;12904;50.088;11.414;2024-01-10T05:13:42;21.63;;;10.23;;
24813;SDS011;12904;50.088;11.414;2024-01-10T05:16:08;27.88;;;10.95;;
24813;SDS011;12904;50.088;11.414;2024-01-10T05:18:34;23.70;;;10.27;;
24813;SDS011;12904;50.088;11.414;2024-01-10T05:21:00;31.15;;;12.57;;
24813;SDS011;12904;50.088;11.414;2024-01-10T05:23:25;30.00;;;11.63;;
24813;SDS011;12904;50.088;11.414;2024-01-10T05:25:51;19.02;;;10.60;;
24813;SDS011;12904;50.088;11.414;2024-01-10T05:28:18;30.52;;;11.90;;
24813;SDS011;12904;50.088;11.414;2024-01-10T05:30:43;22.42;;;11.43;;
24813;SDS011;12904;50.088;11.414;2024-01-10T05:33:09;16.38;;;10.18;;
24813;SDS011;12904;50.088;11.414;2024-01-10T05:35:35;15.13;;;9.27;;
24813;SDS011;12904;50.088;11.414;2024-01-10T05:38:01;21.98;;;9.50;;
24813;SDS011;12904;50.088;11.414;2024-01-10T05:40:27;33.28;;;13.15;;
24813;SDS011;12904;50.088;11.414;2024-01-10T05:42:55;28.20;;;12.77;;
24813;SDS011;12904;50.088;11.414;2024-01-10T05:45:21;23.60;;;10.13;;
24813;SDS011;12904;50.088;11.414;2024-01-10T05:47:46;19.42;;;10.77;;
24813;SDS011;12904;50.088;11.414;2024-01-10T05:50:13;30.48;;;11.98;;
24813;SDS011;12904;50.088;11.414;2024-01-10T05:52:39;22.63;;;9.45;;
24813;SDS011;12904;50.088;11.414;2024-01-10T05:55:05;21.02;;;11.00;;
24813;SDS011;12904;50.088;11.414;2024-01-10T05:57:33;29.33;;;11.48;;
24813;SDS011;12904;50.088;11.414;2024-01-10T05:59:59;24.75;;;11.80;;
24813;SDS011;12904;50.088;11.414;2024-01-10T06:02:25;16.52;;;9.60;;
24813;SDS011;12904;50.088;11.414;2024-01-10T06:04:51;14.85;;;9.40;;
24813;SDS011;12904;50.088;11.414;2024-01-10T06:07:17;21.05;;;10.73;;
24813;SDS011;12904;50.088;11.414;2024-01-10T06:09:43;16.15;;;9.52;;
24813;SDS011;12904;50.088;11.414;2024-01-10T06:12:09;18.02;;;9.63;;
24813;SDS011;12904;50.088;11.414;2024-01-10T06:14:34;17.98;;;9.23;;
24813;SDS011;12904;50.088;11.414;2024-01-10T06:17:01;20.55;;;9.48;;
24813;SDS011;12904;50.088;11.414;2024-01-10T06:19:28;18.45;;;10.13;;
24813;SDS011;12904;50.088;11.414;2024-01-10T06:21:57;17.88;;;9.65;;
24813;SDS011;12904;50.088;11.414;2024-01-10T06:24:24;17.65;;;10.07;;
24813;SDS011;12904;50.088;11.414;2024-01-10T06:26:50;15.25;;;9.35;;
24813;SDS011;12904;50.088;11.414;2024-01-10T06:29:16;18.95;;;11.05;;
24813;SDS011;12904;50.088;11.414;2024-01-10T06:31:41;16.23;;;9.60;;
24813;SDS011;12904;50.088;11.414;2024-01-10T06:34:07;22.92;;;10.75;;
24813;SDS011;12904;50.088;11.414;2024-01-10T06:36:33;17.92;;;9.80;;
24813;SDS011;12904;50.088;11.414;2024-01-10T06:39:00;15.82;;;9.30;;
24813;SDS011;12904;50.088;11.414;2024-01-10T06:41:25;19.55;;;10.23;;
24813;SDS011;12904;50.088;11.414;2024-01-10T06:43:51;16.80;;;9.38;;
24813;SDS011;12904;50.088;11.414;2024-01-10T06:46:17;14.20;;;9.48;;
24813;SDS011;12904;50.088;11.414;2024-01-10T06:48:43;14.98;;;8.68;;
24813;SDS011;12904;50.088;11.414;2024-01-10T06:51:09;18.45;;;9.50;;
24813;SDS011;12904;50.088;11.414;2024-01-10T06:53:37;16.42;;;9.10;;
24813;SDS011;12904;50.088;11.414;2024-01-10T06:56:03;20.83;;;10.30;;
24813;SDS011;12904;50.088;11.414;2024-01-10T06:58:29;19.67;;;9.80;;
24813;SDS011;12904;50.088;11.414;2024-01-10T07:00:54;17.67;;;11.35;;
24813;SDS011;12904;50.088;11.414;2024-01-10T07:03:20;21.10;;;11.18;;
24813;SDS011;12904;50.088;11.414;2024-01-10T07:05:46;20.63;;;9.30;;
24813;SDS011;12904;50.088;11.414;2024-01-10T07:08:11;25.73;;;11.63;;
24813;SDS011;12904;50.088;11.414;2024-01-10T07:10:37;18.23;;;9.38;;
24813;SDS011;12904;50.088;11.414;2024-01-10T07:13:03;21.55;;;11.32;;
24813;SDS011;12904;50.088;11.414;2024-01-10T07:15:29;18.33;;;9.68;;
24813;SDS011;12904;50.088;11.414;2024-01-10T07:17:55;20.92;;;10.90;;
24813;SDS011;12904;50.088;11.414;2024-01-10T07:20:21;20.15;;;10.63;;
24813;SDS011;12904;50.088;11.414;2024-01-10T07:22:49;17.75;;;10.23;;
24813;SDS011;12904;50.088;11.414;2024-01-10T07:25:16;16.17;;;9.45;;
24813;SDS011;12904;50.088;11.414;2024-01-10T07:27:42;15.10;;;9.65;;
24813;SDS011;12904;50.088;11.414;2024-01-10T07:30:08;13.77;;;9.50;;
24813;SDS011;12904;50.088;11.414;2024-01-10T07:32:39;16.70;;;10.17;;
24813;SDS011;12904;50.088;11.414;2024-01-10T07:35:08;17.70;;;9.27;;
24813;SDS011;12904;50.088;11.414;2024-01-10T07:37:35;20.58;;;11.07;;
24813;SDS011;12904;50.088;11.414;2024-01-10T07:40:05;18.07;;;10.07;;
24813;SDS011;12904;50.088;11.414;2024-01-10T07:45:01;17.45;;;9.15;;
24813;SDS011;12904;50.088;11.414;2024-01-10T07:47:30;15.00;;;8.90;;
24813;SDS011;12904;50.088;11.414;2024-01-10T07:49:57;17.55;;;10.35;;
24813;SDS011;12904;50.088;11.414;2024-01-10T07:52:23;18.50;;;9.77;;
24813;SDS011;12904;50.088;11.414;2024-01-10T07:54:49;18.80;;;9.88;;
24813;SDS011;12904;50.088;11.414;2024-01-10T07:57:14;18.05;;;9.80;;
24813;SDS011;12904;50.088;11.414;2024-01-10T07:59:40;17.52;;;9.48;;
24813;SDS011;12904;50.088;11.414;2024-01-10T08:02:06;17.60;;;9.73;;
24813;SDS011;12904;50.088;11.414;2024-01-10T08:04:32;15.60;;;9.90;;
24813;SDS011;12904;50.088;11.414;2024-01-10T08:06:58;15.52;;;9.45;;
24813;SDS011;12904;50.088;11.414;2024-01-10T08:09:23;17.77;;;9.63;;
24813;SDS011;12904;50.088;11.414;2024-01-10T08:11:49;15.98;;;9.90;;
24813;SDS011;12904;50.088;11.414;2024-01-10T08:14:15;16.92;;;9.93;;
24813;SDS011;12904;50.088;11.414;2024-01-10T08:16:41;19.40;;;9.75;;
24813;SDS011;12904;50.088;11.414;2024-01-10T08:19:07;16.05;;;8.80;;
24813;SDS011;12904;50.088;11.414;2024-01-10T08:21:33;18.45;;;8.82;;
24813;SDS011;12904;50.088;11.414;2024-01-10T08:24:00;16.85;;;9.07;;
24813;SDS011;12904;50.088;11.414;2024-01-10T08:26:27;14.27;;;8.60;;
24813;SDS011;12904;50.088;11.414;2024-01-10T08:28:53;16.15;;;10.07;;
24813;SDS011;12904;50.088;11.414;2024-01-10T08:31:19;19.98;;;10.07;;
24813;SDS011;12904;50.088;11.414;2024-01-10T08:33:44;23.00;;;9.77;;
24813;SDS011;12904;50.088;11.414;2024-01-10T08:36:11;20.15;;;9.20;;
24813;SDS011;12904;50.088;11.414;2024-01-10T08:38:38;16.63;;;9.57;;
24813;SDS011;12904;50.088;11.414;2024-01-10T08:41:03;16.73;;;8.95;;
24813;SDS011;12904;50.088;11.414;2024-01-10T08:43:29;15.35;;;9.25;;
24813;SDS011;12904;50.088;11.414;2024-01-10T08:45:55;19.48;;;10.27;;
24813;SDS011;12904;50.088;11.414;2024-01-10T08:48:22;14.82;;;8.88;;
24813;SDS011;12904;50.088;11.414;2024-01-10T08:50:48;15.40;;;10.05;;
24813;SDS011;12904;50.088;11.414;2024-01-10T08:53:15;18.95;;;9.77;;
24813;SDS011;12904;50.088;11.414;2024-01-10T08:55:41;17.70;;;10.38;;
24813;SDS011;12904;50.088;11.414;2024-01-10T08:58:07;16.52;;;9.50;;
24813;SDS011;12904;50.088;11.414;2024-01-10T09:00:32;13.25;;;8.57;;
24813;SDS011;12904;50.088;11.414;2024-01-10T09:02:59;12.80;;;8.65;;
24813;SDS011;12904;50.088;11.414;2024-01-10T09:05:25;15.35;;;9.23;;
24813;SDS011;12904;50.088;11.414;2024-01-10T09:07:51;14.88;;;8.68;;
24813;SDS011;12904;50.088;11.414;2024-01-10T09:10:18;27.00;;;10.95;;
24813;SDS011;12904;50.088;11.414;2024-01-10T09:12:46;14.13;;;8.45;;
24813;SDS011;12904;50.088;11.414;2024-01-10T09:15:12;14.88;;;9.35;;
24813;SDS011;12904;50.088;11.414;2024-01-10T09:17:40;18.17;;;9.38;;
24813;SDS011;12904;50.088;11.414;2024-01-10T09:20:09;16.00;;;9.52;;
24813;SDS011;12904;50.088;11.414;2024-01-10T09:22:35;16.73;;;8.45;;
24813;SDS011;12904;50.088;11.414;2024-01-10T09:25:03;15.65;;;9.48;;
24813;SDS011;12904;50.088;11.414;2024-01-10T09:27:30;15.57;;;9.23;;
24813;SDS011;12904;50.088;11.414;2024-01-10T09:29:59;11.90;;;8.07;;
24813;SDS011;12904;50.088;11.414;2024-01-10T09:32:27;11.95;;;8.75;;
24813;SDS011;12904;50.088;11.414;2024-01-10T09:34:53;11.70;;;8.43;;
24813;SDS011;12904;50.088;11.414;2024-01-10T09:37:20;10.55;;;7.93;;
24813;SDS011;12904;50.088;11.414;2024-01-10T09:39:45;11.73;;;9.02;;
24813;SDS011;12904;50.088;11.414;2024-01-10T09:42:11;9.27;;;7.82;;
24813;SDS011;12904;50.088;11.414;2024-01-10T09:44:36;10.45;;;8.95;;
24813;SDS011;12904;50.088;11.414;2024-01-10T09:47:02;11.98;;;9.45;;
24813;SDS011;12904;50.088;11.414;2024-01-10T09:49:28;12.43;;;9.32;;
24813;SDS011;12904;50.088;11.414;2024-01-10T09:51:57;9.50;;;8.35;;
24813;SDS011;12904;50.088;11.414;2024-01-10T09:54:26;12.23;;;8.65;;
24813;SDS011;12904;50.088;11.414;2024-01-10T09:56:55;12.82;;;8.93;;
24813;SDS011;12904;50.088;11.414;2024-01-10T09:59:24;9.90;;;8.85;;
24813;SDS011;12904;50.088;11.414;2024-01-10T10:01:50;11.15;;;8.80;;
24813;SDS011;12904;50.088;11.414;2024-01-10T10:04:17;9.40;;;8.32;;
24813;SDS011;12904;50.088;11.414;2024-01-10T10:06:44;12.98;;;8.57;;
24813;SDS011;12904;50.088;11.414;2024-01-10T10:09:10;10.90;;;9.02;;
24813;SDS011;12904;50.088;11.414;2024-01-10T10:11:37;10.68;;;8.35;;
24813;SDS011;12904;50.088;11.414;2024-01-10T10:14:15;10.55;;;8.32;;
24813;SDS011;12904;50.088;11.414;2024-01-10T10:16:43;10.10;;;8.23;;
24813;SDS011;12904;50.088;11.414;2024-01-10T10:19:08;9.95;;;8.85;;
24813;SDS011;12904;50.088;11.414;2024-01-10T10:21:36;9.95;;;8.38;;
24813;SDS011;12904;50.088;11.414;2024-01-10T10:24:02;11.52;;;8.80;;
24813;SDS011;12904;50.088;11.414;2024-01-10T10:26:34;11.63;;;9.18;;
24813;SDS011;12904;50.088;11.414;2024-01-10T10:29:00;12.75;;;8.98;;
24813;SDS011;12904;50.088;11.414;2024-01-10T10:31:25;11.40;;;9.00;;
24813;SDS011;12904;50.088;11.414;2024-01-10T10:33:52;10.60;;;9.35;;
24813;SDS011;12904;50.088;11.414;2024-01-10T10:36:18;12.05;;;9.63;;
24813;SDS011;12904;50.088;11.414;2024-01-10T10:38:48;11.05;;;8.20;;
24813;SDS011;12904;50.088;11.414;2024-01-10T10:41:14;11.73;;;8.48;;
24813;SDS011;12904;50.088;11.414;2024-01-10T10:43:40;13.38;;;9.63;;
24813;SDS011;12904;50.088;11.414;2024-01-10T10:46:07;17.10;;;9.48;;
24813;SDS011;12904;50.088;11.414;2024-01-10T10:48:41;13.65;;;9.13;;
24813;SDS011;12904;50.088;11.414;2024-01-10T10:53:51;14.05;;;9.10;;
24813;SDS011;12904;50.088;11.414;2024-01-10T10:56:18;12.68;;;9.98;;
24813;SDS011;12904;50.088;11.414;2024-01-10T10:58:44;12.95;;;8.88;;
24813;SDS011;12904;50.088;11.414;2024-01-10T11:01:12;11.10;;;8.90;;
24813;SDS011;12904;50.088;11.414;2024-01-10T11:03:39;10.82;;;8.80;;
24813;SDS011;12904;50.088;11.414;2024-01-10T11:06:06;15.40;;;10.10;;
24813;SDS011;12904;50.088;11.414;2024-01-10T11:08:45;13.23;;;9.25;;
24813;SDS011;12904;50.088;11.414;2024-01-10T11:16:29;12.55;;;8.48;;
24813;SDS011;12904;50.088;11.414;2024-01-10T11:24:24;13.15;;;9.15;;
24813;SDS011;12904;50.088;11.414;2024-01-10T11:27:05;12.88;;;8.77;;
24813;SDS011;12904;50.088;11.414;2024-01-10T11:29:38;13.02;;;9.98;;
24813;SDS011;12904;50.088;11.414;2024-01-10T11:32:05;12.93;;;9.55;;
24813;SDS011;12904;50.088;11.414;2024-01-10T11:34:34;11.88;;;8.95;;
24813;SDS011;12904;50.088;11.414;2024-01-10T11:37:09;12.80;;;8.85;;
24813;SDS011;12904;50.088;11.414;2024-01-10T11:39:36;12.95;;;9.35;;
24813;SDS011;12904;50.088;11.414;2024-01-10T11:42:02;15.05;;;9.65;;
24813;SDS011;12904;50.088;11.414;2024-01-10T11:44:28;13.88;;;9.13;;
24813;SDS011;12904;50.088;11.414;2024-01-10T11:46:55;13.45;;;9.23;;
24813;SDS011;12904;50.088;11.414;2024-01-10T11:49:22;11.68;;;9.05;;
24813;SDS011;12904;50.088;11.414;2024-01-10T11:59:43;11.35;;;8.05;;
24813;SDS011;12904;50.088;11.414;2024-01-10T12:02:15;12.15;;;8.38;;
24813;SDS011;12904;50.088;11.414;2024-01-10T12:04:42;15.00;;;7.90;;
24813;SDS011;12904;50.088;11.414;2024-01-10T12:07:08;13.95;;;8.23;;
24813;SDS011;12904;50.088;11.414;2024-01-10T12:09:34;13.13;;;8.45;;
24813;SDS011;12904;50.088;11.414;2024-01-10T12:12:03;14.05;;;8.70;;
24813;SDS011;12904;50.088;11.414;2024-01-10T12:14:29;12.65;;;8.60;;
24813;SDS011;12904;50.088;11.414;2024-01-10T12:16:55;15.05;;;9.23;;
24813;SDS011;12904;50.088;11.414;2024-01-10T12:19:22;13.13;;;9.52;;
24813;SDS011;12904;50.088;11.414;2024-01-10T12:21:50;10.88;;;8.25;;
24813;SDS011;12904;50.088;11.414;2024-01-10T12:24:17;11.55;;;9.15;;
24813;SDS011;12904;50.088;11.414;2024-01-10T12:26:46;12.73;;;8.52;;
24813;SDS011;12904;50.088;11.414;2024-01-10T12:31:45;11.17;;;9.07;;
24813;SDS011;12904;50.088;11.414;2024-01-10T12:34:10;11.00;;;8.50;;
24813;SDS011;12904;50.088;11.414;2024-01-10T12:36:36;14.82;;;9.60;;
24813;SDS011;12904;50.088;11.414;2024-01-10T12:39:02;12.02;;;7.97;;
24813;SDS011;12904;50.088;11.414;2024-01-10T12:41:31;11.60;;;8.05;;
24813;SDS011;12904;50.088;11.414;2024-01-10T12:43:58;13.55;;;8.95;;
24813;SDS011;12904;50.088;11.414;2024-01-10T12:46:28;12.30;;;8.80;;
24813;SDS011;12904;50.088;11.414;2024-01-10T12:49:01;14.80;;;8.98;;
24813;SDS011;12904;50.088;11.414;2024-01-10T12:51:32;12.05;;;8.48;;
24813;SDS011;12904;50.088;11.414;2024-01-10T12:54:01;12.85;;;9.52;;
24813;SDS011;12904;50.088;11.414;2024-01-10T12:56:29;11.82;;;8.13;;
24813;SDS011;12904;50.088;11.414;2024-01-10T12:58:55;9.98;;;8.15;;
24813;SDS011;12904;50.088;11.414;2024-01-10T13:01:21;12.95;;;9.57;;
24813;SDS011;12904;50.088;11.414;2024-01-10T13:03:51;12.07;;;8.50;;
24813;SDS011;12904;50.088;11.414;2024-01-10T13:06:17;10.88;;;8.00;;
24813;SDS011;12904;50.088;11.414;2024-01-10T13:08:44;11.43;;;8.50;;
24813;SDS011;12904;50.088;11.414;2024-01-10T13:11:10;10.50;;;7.50;;
24813;SDS011;12904;50.088;11.414;2024-01-10T13:13:37;12.25;;;8.38;;
24813;SDS011;12904;50.088;11.414;2024-01-10T13:16:03;12.85;;;8.35;;
24813;SDS011;12904;50.088;11.414;2024-01-10T13:18:29;11.85;;;9.32;;
24813;SDS011;12904;50.088;11.414;2024-01-10T13:20:55;14.80;;;9.75;;
24813;SDS011;12904;50.088;11.414;2024-01-10T13:23:21;12.82;;;8.85;;
24813;SDS011;12904;50.088;11.414;2024-01-10T13:25:52;12.40;;;8.40;;
24813;SDS011;12904;50.088;11.414;2024-01-10T13:28:18;11.00;;;8.75;;
24813;SDS011;12904;50.088;11.414;2024-01-10T13:30:44;12.27;;;8.38;;
24813;SDS011;12904;50.088;11.414;2024-01-10T13:33:10;15.27;;;10.02;;
24813;SDS011;12904;50.088;11.414;2024-01-10T13:35:36;14.50;;;9.88;;
24813;SDS011;12904;50.088;11.414;2024-01-10T13:38:03;15.70;;;9.73;;
24813;SDS011;12904;50.088;11.414;2024-01-10T13:40:29;15.85;;;9.57;;
24813;SDS011;12904;50.088;11.414;2024-01-10T13:42:56;12.20;;;9.43;;
24813;SDS011;12904;50.088;11.414;2024-01-10T13:45:22;15.15;;;9.68;;
24813;SDS011;12904;50.088;11.414;2024-01-10T13:47:48;12.15;;;9.40;;
24813;SDS011;12904;50.088;11.414;2024-01-10T13:50:14;19.17;;;9.55;;
24813;SDS011;12904;50.088;11.414;2024-01-10T13:52:41;14.70;;;10.10;;
24813;SDS011;12904;50.088;11.414;2024-01-10T13:55:07;16.50;;;10.65;;
24813;SDS011;12904;50.088;11.414;2024-01-10T13:57:33;15.40;;;10.68;;
24813;SDS011;12904;50.088;11.414;2024-01-10T14:00:02;15.32;;;10.75;;
24813;SDS011;12904;50.088;11.414;2024-01-10T14:02:34;17.35;;;11.30;;
24813;SDS011;12904;50.088;11.414;2024-01-10T14:05:00;19.27;;;10.77;;
24813;SDS011;12904;50.088;11.414;2024-01-10T14:07:30;19.52;;;12.00;;
24813;SDS011;12904;50.088;11.414;2024-01-10T14:09:56;15.73;;;10.35;;
24813;SDS011;12904;50.088;11.414;2024-01-10T14:12:21;17.02;;;10.55;;
24813;SDS011;12904;50.088;11.414;2024-01-10T14:14:47;16.08;;;10.57;;
24813;SDS011;12904;50.088;11.414;2024-01-10T14:17:13;16.27;;;10.55;;
24813;SDS011;12904;50.088;11.414;2024-01-10T14:19:38;15.68;;;9.60;;
24813;SDS011;12904;50.088;11.414;2024-01-10T14:22:04;17.55;;;10.70;;
24813;SDS011;12904;50.088;11.414;2024-01-10T14:24:30;19.15;;;10.45;;
24813;SDS011;12904;50.088;11.414;2024-01-10T14:26:57;14.98;;;10.52;;
24813;SDS011;12904;50.088;11.414;2024-01-10T14:29:23;13.65;;;10.20;;
24813;SDS011;12904;50.088;11.414;2024-01-10T14:31:49;14.82;;;10.18;;
24813;SDS011;12904;50.088;11.414;2024-01-10T14:34:15;18.30;;;9.88;;
24813;SDS011;12904;50.088;11.414;2024-01-10T14:36:41;13.40;;;10.43;;
24813;SDS011;12904;50.088;11.414;2024-01-10T14:39:06;14.60;;;11.00;;
24813;SDS011;12904;50.088;11.414;2024-01-10T14:41:32;16.45;;;10.40;;
24813;SDS011;12904;50.088;11.414;2024-01-10T14:43:59;13.88;;;9.30;;